createdAt,value
2022-08-20T00:01:42.173Z,49.56
2022-08-20T00:04:10.282Z,49.35
2022-08-20T00:06:40.408Z,49.56
2022-08-20T00:09:08.493Z,49.76
2022-08-20T00:11:36.203Z,49.69
2022-08-20T00:14:06.494Z,49.24
2022-08-20T00:16:36.723Z,49.67
2022-08-20T00:19:08.460Z,49.67
2022-08-20T00:21:37.650Z,49.72
2022-08-20T00:24:06.008Z,49.75
2022-08-20T00:26:34.433Z,50.01
2022-08-20T00:29:04.768Z,50.21
2022-08-20T00:31:32.472Z,49.94
2022-08-20T00:33:59.998Z,49.81
2022-08-20T00:36:32.499Z,50.13
2022-08-20T00:39:01.106Z,49.79
2022-08-20T00:41:28.825Z,50.11
2022-08-20T00:44:14.407Z,50.75
2022-08-20T00:46:43.733Z,50.40
2022-08-20T00:49:18.119Z,50.39
2022-08-20T00:51:54.844Z,50.70
2022-08-20T00:54:37.925Z,50.66
2022-08-20T00:57:11.174Z,50.73
2022-08-20T00:59:42.797Z,50.67
2022-08-20T01:02:17.713Z,50.84
2022-08-20T01:04:51.547Z,50.97
2022-08-20T01:07:20.801Z,51.09
2022-08-20T01:09:58.038Z,51.21
2022-08-20T01:12:30.459Z,51.20
2022-08-20T01:15:01.318Z,51.21
2022-08-20T01:17:33.099Z,51.08
2022-08-20T01:20:12.190Z,51.44
2022-08-20T01:23:24.071Z,51.63
2022-08-20T01:26:09.878Z,51.59
2022-08-20T01:28:53.168Z,51.91
2022-08-20T01:31:24.571Z,51.93
2022-08-20T01:33:55.000Z,52.25
2022-08-20T01:36:26.823Z,51.95
2022-08-20T01:38:55.537Z,51.89
2022-08-20T01:41:28.469Z,51.68
2022-08-20T01:43:58.669Z,52.38
2022-08-20T01:46:44.054Z,52.77
2022-08-20T01:49:23.445Z,52.64
2022-08-20T01:51:54.575Z,52.74
2022-08-20T01:54:26.746Z,53.08
2022-08-20T01:57:10.730Z,52.79
2022-08-20T01:59:40.248Z,52.80
2022-08-20T02:02:08.916Z,52.52
2022-08-20T02:04:37.804Z,52.76
2022-08-20T02:07:07.565Z,52.86
2022-08-20T02:09:39.968Z,52.89
2022-08-20T02:12:09.522Z,52.49
2022-08-20T02:14:43.285Z,53.35
2022-08-20T02:17:12.120Z,53.04
2022-08-20T02:19:55.558Z,52.36
2022-08-20T02:22:27.232Z,52.28
2022-08-20T02:24:56.429Z,52.37
2022-08-20T02:27:23.983Z,52.66
2022-08-20T02:29:54.399Z,52.44
2022-08-20T02:32:25.064Z,52.59
2022-08-20T02:35:09.046Z,52.71
2022-08-20T02:37:38.138Z,52.46
2022-08-20T02:40:09.149Z,52.41
2022-08-20T02:42:37.161Z,52.19
2022-08-20T02:45:06.568Z,52.30
2022-08-20T02:47:34.604Z,52.13
2022-08-20T02:50:02.221Z,52.40
2022-08-20T02:52:36.219Z,52.24
2022-08-20T02:55:04.438Z,53.60
2022-08-20T02:57:33.158Z,53.34
2022-08-20T03:00:02.228Z,52.67
2022-08-20T03:02:30.981Z,52.63
2022-08-20T03:04:58.440Z,52.40
2022-08-20T03:07:26.567Z,52.60
2022-08-20T03:09:53.840Z,52.97
2022-08-20T03:12:22.257Z,52.81
2022-08-20T03:14:49.575Z,52.82
2022-08-20T03:17:17.913Z,52.82
2022-08-20T03:19:45.222Z,53.37
2022-08-20T03:22:13.240Z,53.53
2022-08-20T03:24:40.550Z,53.55
2022-08-20T03:27:08.810Z,53.52
2022-08-20T03:29:36.079Z,53.26
2022-08-20T03:32:07.808Z,53.28
2022-08-20T03:34:35.569Z,53.39
2022-08-20T03:37:03.699Z,53.51
2022-08-20T03:39:31.304Z,53.57
2022-08-20T03:41:58.695Z,53.67
2022-08-20T03:44:27.193Z,53.69
2022-08-20T03:46:54.709Z,53.96
2022-08-20T03:49:24.270Z,53.84
2022-08-20T03:51:57.776Z,53.84
2022-08-20T03:54:27.341Z,53.63
2022-08-20T03:57:00.846Z,53.29
2022-08-20T03:59:28.779Z,54.28
2022-08-20T04:01:56.468Z,54.60
2022-08-20T04:04:24.104Z,55.30
2022-08-20T04:06:51.463Z,55.67
2022-08-20T04:09:18.973Z,55.53
2022-08-20T04:11:46.801Z,56.22
2022-08-20T04:14:14.260Z,56.85
2022-08-20T04:16:48.865Z,56.88
2022-08-20T04:19:17.254Z,56.89
2022-08-20T04:21:48.893Z,57.37
2022-08-20T04:24:22.803Z,57.31
2022-08-20T04:27:03.397Z,57.21
2022-08-20T04:29:35.347Z,58.06
2022-08-20T04:32:06.884Z,57.96
2022-08-20T04:34:35.440Z,57.84
2022-08-20T04:37:03.611Z,57.54
2022-08-20T04:39:32.511Z,57.55
2022-08-20T04:42:00.310Z,57.47
2022-08-20T04:44:29.386Z,57.54
2022-08-20T04:46:59.805Z,57.53
2022-08-20T04:49:28.605Z,58.04
2022-08-20T04:51:56.046Z,59.58
2022-08-20T04:54:24.234Z,59.80
2022-08-20T04:56:51.794Z,59.77
2022-08-20T04:59:20.334Z,59.12
2022-08-20T05:01:47.636Z,58.61
2022-08-20T05:04:15.765Z,58.37
2022-08-20T05:06:43.097Z,58.57
2022-08-20T05:09:11.526Z,58.50
2022-08-20T05:11:38.730Z,58.10
2022-08-20T05:14:09.496Z,58.39
2022-08-20T05:16:41.208Z,58.86
2022-08-20T05:19:13.676Z,60.60
2022-08-20T05:21:41.825Z,60.87
2022-08-20T05:24:10.352Z,60.57
2022-08-20T05:26:38.535Z,59.05
2022-08-20T05:29:07.665Z,59.95
2022-08-20T05:31:36.631Z,60.02
2022-08-20T05:34:12.252Z,59.99
2022-08-20T05:36:48.285Z,59.80
2022-08-20T05:39:18.507Z,59.43
2022-08-20T05:41:46.744Z,59.01
2022-08-20T05:44:15.798Z,58.37
2022-08-20T05:46:45.912Z,57.67
2022-08-20T05:49:20.720Z,56.73
2022-08-20T05:51:49.989Z,56.71
2022-08-20T05:54:17.617Z,58.19
2022-08-20T06:04:25.055Z,57.19
2022-08-20T06:06:56.451Z,56.45
2022-08-20T06:09:31.053Z,54.78
2022-08-20T06:12:06.644Z,54.75
2022-08-20T06:14:34.472Z,54.98
2022-08-20T06:17:17.996Z,54.55
2022-08-20T06:19:50.159Z,54.57
2022-08-20T06:22:22.386Z,53.90
2022-08-20T06:24:53.692Z,53.80
2022-08-20T06:27:21.480Z,53.58
2022-08-20T06:29:50.130Z,54.43
2022-08-20T06:32:19.961Z,53.46
2022-08-20T06:35:03.709Z,55.62
2022-08-20T06:37:34.478Z,55.87
2022-08-20T06:40:11.016Z,54.41
2022-08-20T06:42:48.244Z,54.45
2022-08-20T06:45:24.633Z,54.56
2022-08-20T06:47:58.442Z,54.21
2022-08-20T06:50:32.524Z,52.33
2022-08-20T06:53:00.918Z,53.21
2022-08-20T06:55:38.254Z,52.14
2022-08-20T06:58:15.669Z,53.10
2022-08-20T07:01:01.094Z,50.65
2022-08-20T07:03:31.766Z,52.69
2022-08-20T07:06:00.251Z,51.39
2022-08-20T07:08:28.836Z,51.56
2022-08-20T07:10:57.117Z,50.88
2022-08-20T07:13:25.529Z,52.06
2022-08-20T07:15:54.236Z,50.36
2022-08-20T07:18:28.798Z,48.41
2022-08-20T07:20:57.899Z,51.83
2022-08-20T07:23:27.120Z,48.78
2022-08-20T07:25:56.270Z,45.96
2022-08-20T07:28:29.423Z,49.22
2022-08-20T07:31:16.266Z,51.60
2022-08-20T07:33:44.924Z,49.08
2022-08-20T07:36:13.350Z,48.13
2022-08-20T07:38:41.566Z,48.85
2022-08-20T07:41:13.637Z,49.54
2022-08-20T07:43:45.858Z,45.99
2022-08-20T07:46:17.754Z,48.11
2022-08-20T07:48:50.693Z,46.27
2022-08-20T07:51:22.555Z,46.40
2022-08-20T07:53:52.251Z,48.40
2022-08-20T07:56:24.313Z,49.71
2022-08-20T07:58:55.841Z,48.14
2022-08-20T08:01:28.792Z,46.60
2022-08-20T08:03:57.987Z,47.36
2022-08-20T08:06:29.597Z,48.26
2022-08-20T08:09:16.414Z,47.09
2022-08-20T08:11:52.051Z,46.16
2022-08-20T08:14:24.937Z,47.68
2022-08-20T08:16:54.753Z,48.37
2022-08-20T08:19:22.684Z,45.72
2022-08-20T08:21:50.503Z,44.77
2022-08-20T08:24:24.297Z,46.57
2022-08-20T08:26:54.329Z,44.44
2022-08-20T08:29:21.797Z,43.84
2022-08-20T08:31:49.667Z,46.25
2022-08-20T08:34:17.566Z,45.99
2022-08-20T08:36:45.817Z,45.98
2022-08-20T08:39:13.400Z,44.56
2022-08-20T08:41:50.001Z,46.35
2022-08-20T08:44:30.108Z,43.74
2022-08-20T08:47:13.989Z,44.82
2022-08-20T08:49:42.075Z,44.71
2022-08-20T08:52:19.925Z,43.60
2022-08-20T08:54:52.144Z,42.19
2022-08-20T08:57:20.367Z,43.34
2022-08-20T09:13:07.350Z,46.10
2022-08-20T09:15:36.614Z,44.61
2022-08-20T09:18:05.560Z,45.95
2022-08-20T09:20:36.701Z,45.15
2022-08-20T09:23:08.596Z,46.01
2022-08-20T09:25:36.009Z,46.57
2022-08-20T09:28:03.847Z,41.74
2022-08-20T09:30:32.728Z,41.13
2022-08-20T09:33:00.911Z,41.30
2022-08-20T09:35:30.180Z,43.36
2022-08-20T09:37:58.626Z,44.67
2022-08-20T09:40:26.854Z,41.51
2022-08-20T09:42:54.636Z,42.36
2022-08-20T09:45:22.869Z,43.21
2022-08-20T09:47:56.429Z,43.98
2022-08-20T09:50:31.512Z,43.56
2022-08-20T09:53:02.048Z,42.88
2022-08-20T09:55:37.451Z,43.91
2022-08-20T09:58:12.840Z,45.09
2022-08-20T10:00:41.427Z,45.05
2022-08-20T10:03:09.838Z,44.64
2022-08-20T10:05:37.916Z,44.72
2022-08-20T10:08:10.601Z,42.41
2022-08-20T10:10:38.362Z,42.07
2022-08-20T10:13:05.884Z,43.62
2022-08-20T10:15:33.893Z,43.81
2022-08-20T10:18:05.653Z,41.95
2022-08-20T10:20:35.377Z,41.43
2022-08-20T10:23:03.801Z,41.29
2022-08-20T10:25:31.948Z,41.74
2022-08-20T10:27:59.561Z,41.84
2022-08-20T10:30:27.421Z,41.72
2022-08-20T10:32:55.973Z,41.55
2022-08-20T10:35:24.240Z,41.08
2022-08-20T10:37:52.003Z,42.25
2022-08-20T10:40:20.274Z,42.35
2022-08-20T10:42:48.169Z,42.91
2022-08-20T10:45:17.225Z,42.58
2022-08-20T10:47:45.406Z,42.85
2022-08-20T10:50:17.517Z,43.06
2022-08-20T10:52:46.257Z,41.49
2022-08-20T10:55:14.801Z,42.00
2022-08-20T10:57:45.693Z,41.22
2022-08-20T11:00:17.596Z,42.31
2022-08-20T11:02:59.798Z,42.29
2022-08-20T11:05:28.757Z,41.74
2022-08-20T11:07:56.976Z,41.82
2022-08-20T11:10:27.484Z,41.95
2022-08-20T11:12:55.665Z,41.82
2022-08-20T11:15:24.065Z,42.31
2022-08-20T11:17:53.309Z,42.15
2022-08-20T11:20:22.040Z,41.49
2022-08-20T11:22:49.265Z,41.60
2022-08-20T11:25:17.266Z,41.53
2022-08-20T11:27:46.951Z,42.56
2022-08-20T11:30:23.488Z,42.37
2022-08-20T11:32:53.039Z,44.39
2022-08-20T11:35:48.130Z,43.96
2022-08-20T11:38:13.026Z,44.61
2022-08-20T11:40:41.841Z,43.36
2022-08-20T11:43:15.561Z,43.21
2022-08-20T11:45:54.962Z,42.10
2022-08-20T11:48:22.770Z,41.98
2022-08-20T11:50:51.004Z,41.00
2022-08-20T11:53:18.887Z,41.90
2022-08-20T11:55:47.819Z,42.29
2022-08-20T11:58:15.764Z,41.53
2022-08-20T12:00:43.252Z,41.62
2022-08-20T12:03:12.006Z,42.43
2022-08-20T12:05:42.976Z,43.26
2022-08-20T12:08:27.146Z,42.52
2022-08-20T12:10:58.974Z,41.40
2022-08-20T12:13:47.368Z,41.13
2022-08-20T12:16:20.161Z,40.72
2022-08-20T12:18:49.786Z,42.73
2022-08-20T12:21:18.558Z,43.29
2022-08-20T12:23:47.522Z,43.07
2022-08-20T12:26:17.345Z,42.80
2022-08-20T12:28:48.411Z,42.34
2022-08-20T12:31:17.154Z,41.39
2022-08-20T12:33:45.535Z,41.58
2022-08-20T12:36:13.968Z,41.44
2022-08-20T12:38:42.712Z,40.81
2022-08-20T12:41:11.055Z,40.66
2022-08-20T12:43:39.535Z,40.42
2022-08-20T12:46:07.868Z,40.61
2022-08-20T12:48:35.951Z,41.67
2022-08-20T12:51:04.228Z,42.35
2022-08-20T12:53:32.616Z,43.50
2022-08-20T12:56:06.749Z,41.18
2022-08-20T12:58:35.053Z,38.84
2022-08-20T13:01:03.082Z,41.38
2022-08-20T13:03:32.133Z,39.80
2022-08-20T13:06:02.330Z,40.29
2022-08-20T13:08:30.481Z,39.78
2022-08-20T13:10:58.453Z,40.31
2022-08-20T13:13:29.294Z,40.65
2022-08-20T13:15:57.380Z,40.89
2022-08-20T13:18:25.444Z,41.57
2022-08-20T13:20:53.348Z,40.85
2022-08-20T13:23:23.854Z,40.68
2022-08-20T13:25:51.894Z,40.39
2022-08-20T13:28:19.916Z,40.63
2022-08-20T13:30:47.993Z,41.01
2022-08-20T13:33:16.519Z,40.86
2022-08-20T13:35:45.300Z,40.96
2022-08-20T13:38:14.223Z,41.40
2022-08-20T13:40:42.737Z,41.28
2022-08-20T13:43:15.783Z,41.35
2022-08-20T13:45:43.211Z,39.88
2022-08-20T13:48:15.289Z,39.95
2022-08-20T13:50:47.351Z,40.59
2022-08-20T13:53:15.915Z,40.84
2022-08-20T13:55:44.747Z,41.17
2022-08-20T13:58:12.380Z,40.70
2022-08-20T14:00:39.733Z,41.91
2022-08-20T14:03:09.501Z,41.78
2022-08-20T14:05:37.408Z,42.53
2022-08-20T14:08:15.874Z,43.26
2022-08-20T14:10:45.401Z,42.86
2022-08-20T14:13:19.285Z,42.54
2022-08-20T14:15:47.283Z,42.46
2022-08-20T14:18:15.547Z,41.46
2022-08-20T14:20:45.515Z,42.32
2022-08-20T14:23:13.977Z,43.39
2022-08-20T14:25:45.202Z,43.20
2022-08-20T14:28:23.984Z,42.41
2022-08-20T14:30:53.453Z,43.15
2022-08-20T14:33:24.971Z,43.48
2022-08-20T14:35:53.698Z,43.51
2022-08-20T14:38:21.293Z,42.10
2022-08-20T14:40:50.770Z,43.08
2022-08-20T14:43:23.220Z,43.50
2022-08-20T14:45:51.094Z,43.81
2022-08-20T14:48:18.455Z,43.51
2022-08-20T14:50:48.945Z,43.60
2022-08-20T14:53:16.690Z,43.60
2022-08-20T14:55:45.127Z,43.00
2022-08-20T14:58:13.834Z,42.31
2022-08-20T15:00:42.648Z,42.27
2022-08-20T15:03:13.729Z,42.74
2022-08-20T15:05:41.368Z,42.92
2022-08-20T15:08:10.590Z,42.83
2022-08-20T15:10:39.596Z,43.71
2022-08-20T15:13:07.459Z,44.24
2022-08-20T15:15:35.639Z,44.56
2022-08-20T15:18:03.638Z,44.13
2022-08-20T15:20:33.458Z,44.61
2022-08-20T15:23:01.614Z,44.01
2022-08-20T15:25:36.129Z,44.34
2022-08-20T15:28:06.031Z,44.67
2022-08-20T15:30:34.329Z,45.46
2022-08-20T15:33:02.611Z,45.19
2022-08-20T15:35:30.620Z,44.44
2022-08-20T15:37:59.307Z,43.86
2022-08-20T15:40:29.547Z,44.92
2022-08-20T15:42:59.393Z,44.36
2022-08-20T15:45:27.231Z,43.81
2022-08-20T15:48:06.822Z,44.71
2022-08-20T15:50:34.415Z,45.63
2022-08-20T15:53:08.659Z,44.99
2022-08-20T15:55:41.309Z,45.39
2022-08-20T15:58:27.497Z,45.67
2022-08-20T16:01:24.527Z,46.08
2022-08-20T16:04:15.274Z,45.49
2022-08-20T16:06:47.377Z,46.24
2022-08-20T16:09:40.549Z,46.02
2022-08-20T16:12:20.587Z,46.53
2022-08-20T16:14:57.395Z,46.38
2022-08-20T16:17:37.106Z,46.91
2022-08-20T16:20:10.709Z,46.73
2022-08-20T16:22:43.785Z,47.01
2022-08-20T16:25:14.374Z,47.13
2022-08-20T16:28:07.563Z,47.59
2022-08-20T16:30:42.482Z,47.97
2022-08-20T16:33:21.598Z,47.94
2022-08-20T16:36:00.661Z,48.14
2022-08-20T16:38:53.926Z,47.95
2022-08-20T16:41:38.323Z,48.37
2022-08-20T16:44:32.327Z,48.46
2022-08-20T16:47:20.459Z,48.69
2022-08-20T16:50:02.399Z,48.84
2022-08-20T16:52:30.482Z,49.58
2022-08-20T16:55:00.984Z,49.61
2022-08-20T16:57:29.451Z,49.54
2022-08-20T16:59:56.713Z,50.49
2022-08-20T17:02:25.827Z,50.14
2022-08-20T17:05:00.070Z,50.43
2022-08-20T17:07:43.154Z,50.06
2022-08-20T17:10:29.379Z,50.09
2022-08-20T17:13:19.461Z,50.43
2022-08-20T17:15:55.582Z,50.31
2022-08-20T17:18:30.014Z,50.11
2022-08-20T17:21:16.992Z,50.15
2022-08-20T17:23:56.451Z,50.19
2022-08-20T17:26:35.463Z,50.41
2022-08-20T17:29:22.478Z,50.60
2022-08-20T17:31:59.649Z,50.54
2022-08-20T17:34:32.292Z,50.34
2022-08-20T17:37:11.194Z,50.16
2022-08-20T17:40:17.790Z,49.97
2022-08-20T17:42:52.849Z,50.12
2022-08-20T17:45:26.055Z,50.09
2022-08-20T17:47:57.308Z,50.31
2022-08-20T17:50:33.059Z,50.34
2022-08-20T17:53:24.665Z,50.35
2022-08-20T17:56:02.105Z,50.44
2022-08-20T17:58:54.462Z,50.74
2022-08-20T18:01:25.174Z,50.38
2022-08-20T18:03:53.916Z,50.42
2022-08-20T18:06:33.104Z,50.86
2022-08-20T18:09:10.119Z,49.64
2022-08-20T18:11:59.065Z,48.45
2022-08-20T18:14:50.489Z,49.11
2022-08-20T18:17:33.898Z,48.96
2022-08-20T18:20:37.547Z,48.79
2022-08-20T18:23:16.925Z,48.75
2022-08-20T18:26:08.876Z,48.70
2022-08-20T18:28:46.233Z,48.85
2022-08-20T18:31:34.678Z,48.83
2022-08-20T18:34:16.294Z,48.66
2022-08-20T18:36:57.932Z,48.96
2022-08-20T18:39:37.024Z,48.63
2022-08-20T18:42:25.245Z,48.69
2022-08-20T18:44:55.447Z,48.63
2022-08-20T18:47:46.422Z,48.77
2022-08-20T18:50:20.579Z,48.90
2022-08-20T18:53:17.057Z,49.01
2022-08-20T18:55:48.956Z,49.04
2022-08-20T18:58:50.768Z,49.09
2022-08-20T19:01:20.541Z,48.67
2022-08-20T19:03:50.348Z,48.26
2022-08-20T19:06:44.979Z,48.43
2022-08-20T19:09:27.242Z,48.02
2022-08-20T19:12:07.568Z,48.33
2022-08-20T19:14:57.825Z,48.33
2022-08-20T19:17:36.229Z,48.59
2022-08-20T19:20:13.217Z,48.73
2022-08-20T19:22:43.347Z,48.86
2022-08-20T19:25:31.594Z,48.78
2022-08-20T19:28:18.109Z,49.03
2022-08-20T19:30:45.945Z,49.14
2022-08-20T19:33:27.250Z,49.34
2022-08-20T19:36:19.388Z,49.34
2022-08-20T19:38:53.851Z,49.39
2022-08-20T19:41:31.086Z,49.63
2022-08-20T19:44:01.483Z,49.72
2022-08-20T19:46:31.343Z,49.52
2022-08-20T19:49:19.690Z,49.38
2022-08-20T19:52:06.149Z,49.03
2022-08-20T19:54:49.086Z,49.61
2022-08-20T19:57:18.144Z,49.93
2022-08-20T20:00:09.261Z,50.51
2022-08-20T20:02:37.322Z,54.89
2022-08-20T20:05:07.304Z,51.44
2022-08-20T20:07:41.688Z,54.89
2022-08-20T20:10:23.476Z,52.25
2022-08-20T20:12:52.810Z,56.49
2022-08-20T20:15:20.578Z,58.40
2022-08-20T20:17:49.146Z,56.57
2022-08-20T20:20:22.913Z,62.93
2022-08-20T20:23:00.147Z,62.93
2022-08-20T20:25:34.189Z,63.85
